Time;durP1;ratioP1;P1;durP2;ratioP2;P2;SDS_P1;SDS_P2;PMS_P1;PMS_P2;Temp;Humidity;BMP_temperature;BMP_pressure;BME280_temperature;BME280_humidity;BME280_pressure;Samples;Min_cycle;Max_cycle;Signal;HPM_P1;HPM_P2
2023/05/25 00:00:09;;;;;;;9.80;6.40;;;12.30;99.90;;;;;;5084173;28;20911;-79
2023/05/25 00:02:35;;;;;;;15.43;5.85;;;12.20;99.90;;;;;;5113057;28;20198;-79
2023/05/25 00:05:01;;;;;;;7.13;4.13;;;12.10;99.90;;;;;;5096671;28;20196;-79
2023/05/25 00:07:27;;;;;;;11.20;4.90;;;12.10;99.90;;;;;;5081612;28;20536;-78
2023/05/25 00:09:53;;;;;;;14.30;5.00;;;12.10;99.90;;;;;;5077103;28;20196;-79
2023/05/25 00:12:19;;;;;;;10.75;4.18;;;12.10;99.90;;;;;;5094392;28;20193;-79
2023/05/25 00:14:45;;;;;;;9.48;4.95;;;12.10;99.90;;;;;;5095529;28;20604;-79
2023/05/25 00:17:10;;;;;;;10.18;4.75;;;12.00;99.90;;;;;;5094742;28;20184;-78
2023/05/25 00:19:41;;;;;;;9.00;5.38;;;12.00;99.90;;;;;;5071329;28;20606;-79
2023/05/25 00:22:10;;;;;;;11.57;6.32;;;12.00;99.90;;;;;;5106736;28;20180;-79
2023/05/25 00:24:37;;;;;;;10.48;5.30;;;11.90;99.90;;;;;;5086339;28;20176;-79
2023/05/25 00:27:03;;;;;;;11.00;5.45;;;11.80;99.90;;;;;;5089570;28;20184;-79
2023/05/25 00:29:29;;;;;;;8.63;4.72;;;11.80;99.90;;;;;;5092914;28;20241;-79
2023/05/25 00:31:55;;;;;;;7.60;5.43;;;11.70;99.90;;;;;;5083998;28;20184;-79
2023/05/25 00:34:21;;;;;;;8.55;5.13;;;11.70;99.90;;;;;;5054631;28;20297;-79
2023/05/25 00:36:47;;;;;;;9.75;5.43;;;11.70;99.90;;;;;;5104382;28;20184;-79
2023/05/25 00:39:14;;;;;;;8.25;5.22;;;11.70;99.90;;;;;;5105668;28;20212;-79
2023/05/25 00:41:43;;;;;;;11.93;5.45;;;11.70;99.90;;;;;;5107363;28;20245;-79
2023/05/25 00:44:09;;;;;;;8.57;5.15;;;11.70;99.90;;;;;;5101349;28;20186;-79
2023/05/25 00:46:37;;;;;;;6.68;4.57;;;11.70;99.90;;;;;;5107502;28;20585;-79
2023/05/25 00:49:03;;;;;;;12.77;5.80;;;11.80;99.90;;;;;;5099100;28;20637;-79
2023/05/25 00:51:31;;;;;;;6.57;5.53;;;11.80;99.90;;;;;;5103342;28;20184;-79
2023/05/25 00:53:57;;;;;;;12.35;4.97;;;11.80;99.90;;;;;;5085278;28;20177;-79
2023/05/25 00:56:27;;;;;;;14.18;5.47;;;11.90;99.90;;;;;;5093675;28;20197;-80
2023/05/25 00:58:55;;;;;;;8.13;5.15;;;12.00;99.90;;;;;;5105909;28;20712;-78
2023/05/25 01:01:22;;;;;;;13.55;5.35;;;12.10;99.90;;;;;;5069146;28;20192;-79
2023/05/25 01:03:52;;;;;;;8.43;4.50;;;12.10;99.90;;;;;;5094198;28;20185;-79
2023/05/25 01:06:20;;;;;;;9.50;5.13;;;12.00;99.90;;;;;;5094695;28;20188;-78
2023/05/25 01:08:55;;;;;;;8.55;5.72;;;12.00;99.90;;;;;;5101607;28;20181;-79
2023/05/25 01:11:31;;;;;;;8.02;5.35;;;11.90;99.90;;;;;;5095553;28;20551;-79
2023/05/25 01:13:58;;;;;;;12.98;6.00;;;11.80;99.90;;;;;;5091309;28;20190;-79
2023/05/25 01:16:28;;;;;;;11.98;5.47;;;11.60;99.90;;;;;;5112519;28;20184;-78
2023/05/25 01:18:54;;;;;;;7.97;5.05;;;11.50;99.90;;;;;;5089094;28;20252;-78
2023/05/25 01:21:36;;;;;;;12.38;5.47;;;11.60;99.90;;;;;;5078687;28;20192;-78
2023/05/25 01:24:25;;;;;;;13.10;5.30;;;11.60;99.90;;;;;;5087473;28;20177;-79
2023/05/25 01:27:00;;;;;;;11.20;5.05;;;11.50;99.90;;;;;;5102946;28;20187;-79
2023/05/25 01:29:28;;;;;;;8.63;5.25;;;11.50;99.90;;;;;;5087991;28;20194;-78
2023/05/25 01:31:56;;;;;;;16.58;5.60;;;11.40;99.90;;;;;;5104495;28;20172;-78
2023/05/25 01:34:23;;;;;;;11.27;5.35;;;11.40;99.90;;;;;;5112249;28;20661;-78
2023/05/25 01:36:49;;;;;;;7.53;5.82;;;11.40;99.90;;;;;;5088236;28;20183;-78
2023/05/25 01:39:15;;;;;;;9.57;5.07;;;11.40;99.90;;;;;;5105643;28;20220;-78
2023/05/25 01:41:41;;;;;;;7.13;5.95;;;11.40;99.90;;;;;;5113598;28;20275;-78
2023/05/25 01:44:07;;;;;;;9.95;5.50;;;11.50;99.90;;;;;;5107384;28;20184;-78
2023/05/25 01:46:38;;;;;;;9.90;6.03;;;11.50;99.90;;;;;;5107590;28;20196;-78
2023/05/25 01:49:22;;;;;;;8.32;5.40;;;11.50;99.90;;;;;;5085559;28;20529;-78
2023/05/25 01:52:07;;;;;;;9.30;6.03;;;11.50;99.90;;;;;;5099804;28;20176;-79
2023/05/25 01:54:39;;;;;;;12.70;5.72;;;11.40;99.90;;;;;;5080388;28;20208;-79
2023/05/25 01:57:12;;;;;;;11.90;5.55;;;11.20;99.90;;;;;;5104683;28;20239;-78
2023/05/25 01:59:41;;;;;;;7.85;5.57;;;11.20;99.90;;;;;;5101075;28;20200;-78
2023/05/25 02:02:08;;;;;;;8.50;6.15;;;11.20;99.90;;;;;;5103768;28;20192;-77
2023/05/25 02:04:35;;;;;;;7.47;5.33;;;11.30;99.90;;;;;;5093358;28;20195;-78
2023/05/25 02:07:03;;;;;;;10.48;5.63;;;11.20;99.90;;;;;;5072249;28;20184;-78
2023/05/25 02:09:28;;;;;;;12.23;5.15;;;11.20;99.90;;;;;;5109719;28;20195;-77
2023/05/25 02:11:54;;;;;;;16.58;6.43;;;11.20;99.90;;;;;;5059857;28;20181;-78
2023/05/25 02:14:20;;;;;;;8.02;4.97;;;11.10;99.90;;;;;;5090020;28;20195;-77
2023/05/25 02:16:45;;;;;;;9.10;5.05;;;11.10;99.90;;;;;;5090957;28;20184;-79
2023/05/25 02:19:13;;;;;;;12.00;6.35;;;11.10;99.90;;;;;;5106522;28;20247;-77
2023/05/25 02:21:41;;;;;;;15.30;5.63;;;11.20;99.90;;;;;;5091223;28;20207;-78
2023/05/25 02:24:08;;;;;;;7.95;5.43;;;11.20;99.90;;;;;;5104056;28;20573;-78
2023/05/25 02:26:35;;;;;;;10.50;5.50;;;11.20;99.90;;;;;;5095907;28;20210;-78
2023/05/25 02:29:02;;;;;;;10.03;5.30;;;11.20;99.90;;;;;;5095069;28;20185;-77
2023/05/25 02:31:28;;;;;;;9.40;6.30;;;11.20;99.90;;;;;;5101009;28;20189;-77
2023/05/25 02:33:54;;;;;;;17.60;6.78;;;11.10;99.90;;;;;;5085526;28;20188;-77
2023/05/25 02:36:20;;;;;;;10.30;6.25;;;11.00;99.90;;;;;;5090819;28;20184;-77
2023/05/25 02:38:48;;;;;;;14.80;7.17;;;11.10;99.90;;;;;;5089140;28;20237;-78
2023/05/25 02:41:15;;;;;;;16.08;6.38;;;11.20;99.90;;;;;;5100709;28;20185;-77
2023/05/25 02:43:40;;;;;;;14.33;6.93;;;11.10;99.90;;;;;;5102782;28;20260;-78
2023/05/25 02:46:06;;;;;;;9.77;5.97;;;11.00;99.90;;;;;;5089805;28;20384;-77
2023/05/25 02:48:32;;;;;;;12.57;5.57;;;10.90;99.90;;;;;;5091738;28;20195;-77
2023/05/25 02:50:57;;;;;;;8.50;5.87;;;10.90;99.90;;;;;;5091242;28;20282;-79
2023/05/25 02:53:23;;;;;;;12.47;5.67;;;10.90;99.90;;;;;;5081703;28;20267;-77
2023/05/25 02:55:49;;;;;;;12.03;6.07;;;10.90;99.90;;;;;;5090808;28;20180;-77
2023/05/25 02:58:15;;;;;;;7.63;4.80;;;10.90;99.90;;;;;;5103506;28;20189;-77
2023/05/25 03:00:41;;;;;;;10.87;7.33;;;10.90;99.90;;;;;;5099043;28;20208;-78
2023/05/25 03:03:07;;;;;;;15.65;7.30;;;10.90;99.90;;;;;;5074727;28;20196;-77
2023/05/25 03:05:34;;;;;;;13.23;6.43;;;11.00;99.90;;;;;;5079799;28;20254;-77
2023/05/25 03:08:00;;;;;;;13.57;6.13;;;11.00;99.90;;;;;;5084523;28;20188;-77
2023/05/25 03:10:26;;;;;;;12.37;6.10;;;11.10;99.90;;;;;;5105631;28;20181;-77
2023/05/25 03:12:51;;;;;;;10.30;6.30;;;11.00;99.90;;;;;;5087244;28;20184;-77
2023/05/25 03:15:17;;;;;;;11.37;5.20;;;10.90;99.90;;;;;;5096508;28;20180;-76
2023/05/25 03:17:43;;;;;;;8.32;5.65;;;10.90;99.90;;;;;;5072482;28;20192;-76
2023/05/25 03:20:09;;;;;;;9.57;6.53;;;10.80;99.90;;;;;;5077746;28;20762;-76
2023/05/25 03:22:35;;;;;;;13.60;6.30;;;10.70;99.90;;;;;;5109686;28;20184;-76
2023/05/25 03:25:01;;;;;;;17.07;6.70;;;10.60;99.90;;;;;;5094677;28;20192;-76
2023/05/25 03:27:27;;;;;;;19.02;7.68;;;10.60;99.90;;;;;;5086294;28;20287;-76
2023/05/25 03:29:53;;;;;;;14.57;6.37;;;10.60;99.90;;;;;;5101225;28;20649;-76
2023/05/25 03:32:19;;;;;;;11.83;7.57;;;10.50;99.90;;;;;;5095100;28;20192;-76
2023/05/25 03:34:44;;;;;;;18.57;6.80;;;10.50;99.90;;;;;;5088809;28;20192;-77
2023/05/25 03:37:10;;;;;;;13.63;7.00;;;10.50;99.90;;;;;;5076446;28;20216;-76
2023/05/25 03:39:36;;;;;;;9.17;6.47;;;10.50;99.90;;;;;;5085937;28;20216;-76
2023/05/25 03:42:02;;;;;;;15.50;6.77;;;10.50;99.90;;;;;;5105041;28;20188;-76
2023/05/25 03:44:28;;;;;;;14.60;6.00;;;10.30;99.90;;;;;;5085702;28;20249;-76
2023/05/25 03:46:53;;;;;;;14.70;7.50;;;10.30;99.90;;;;;;5102793;28;20270;-75
2023/05/25 03:49:19;;;;;;;13.90;6.93;;;10.30;99.90;;;;;;5102408;28;20184;-76
2023/05/25 03:51:45;;;;;;;14.97;6.70;;;10.40;99.90;;;;;;5093326;28;20185;-77
2023/05/25 03:54:10;;;;;;;8.87;5.73;;;10.30;99.90;;;;;;5088598;28;20199;-76
2023/05/25 03:56:36;;;;;;;9.93;7.10;;;10.20;99.90;;;;;;5096386;28;20555;-76
2023/05/25 03:59:02;;;;;;;15.87;6.30;;;10.30;99.90;;;;;;5072586;28;20279;-76
2023/05/25 04:01:28;;;;;;;14.63;6.87;;;10.40;99.90;;;;;;5063709;28;20197;-76
2023/05/25 04:03:55;;;;;;;13.83;6.57;;;10.50;99.90;;;;;;5097533;28;20543;-76
2023/05/25 04:06:24;;;;;;;15.80;6.83;;;10.70;99.90;;;;;;5093154;28;20191;-77
2023/05/25 04:08:52;;;;;;;12.73;7.97;;;10.70;99.90;;;;;;5093425;28;20184;-76
2023/05/25 04:11:18;;;;;;;10.90;7.37;;;10.50;99.90;;;;;;5080772;28;20192;-76
2023/05/25 04:13:45;;;;;;;10.67;6.63;;;10.50;99.90;;;;;;5084849;28;20271;-77
2023/05/25 04:16:11;;;;;;;12.83;6.57;;;10.70;99.90;;;;;;5075181;28;20188;-78
2023/05/25 04:18:37;;;;;;;17.43;7.40;;;10.60;99.90;;;;;;5079712;28;20191;-77
2023/05/25 04:21:03;;;;;;;10.53;6.43;;;10.50;99.90;;;;;;5077594;28;20216;-77
2023/05/25 04:23:29;;;;;;;19.50;7.37;;;10.50;99.90;;;;;;5087838;28;20192;-77
2023/05/25 04:25:56;;;;;;;15.00;6.43;;;10.60;99.90;;;;;;5104641;28;20625;-76
2023/05/25 04:28:22;;;;;;;11.93;7.73;;;10.60;99.90;;;;;;5088424;28;20184;-76
2023/05/25 04:30:47;;;;;;;15.77;7.00;;;10.50;99.90;;;;;;5087300;28;20195;-76
2023/05/25 04:33:13;;;;;;;15.47;7.80;;;10.60;99.90;;;;;;5085654;28;20570;-76
2023/05/25 04:35:39;;;;;;;16.20;7.57;;;10.80;99.90;;;;;;5093917;28;20641;-76
2023/05/25 04:38:05;;;;;;;14.33;6.13;;;10.80;99.90;;;;;;5094172;28;20236;-78
2023/05/25 04:40:34;;;;;;;17.83;6.57;;;10.60;99.90;;;;;;5077658;28;20226;-77
2023/05/25 04:43:00;;;;;;;9.68;6.07;;;10.70;99.90;;;;;;5110025;28;20185;-76
2023/05/25 04:45:28;;;;;;;15.75;6.88;;;10.80;99.90;;;;;;5094924;28;20187;-76
2023/05/25 04:47:55;;;;;;;10.37;7.00;;;11.00;99.90;;;;;;5084384;28;20191;-77
2023/05/25 04:50:21;;;;;;;18.10;7.80;;;11.00;99.90;;;;;;5085142;28;20275;-76
2023/05/25 04:52:46;;;;;;;24.60;7.53;;;10.90;99.90;;;;;;5082607;28;20280;-76
2023/05/25 04:55:12;;;;;;;9.73;5.47;;;11.10;99.90;;;;;;5064638;28;20210;-76
2023/05/25 04:57:38;;;;;;;12.63;6.77;;;10.90;99.90;;;;;;5060922;28;20184;-76
2023/05/25 05:00:05;;;;;;;12.90;7.80;;;10.90;99.90;;;;;;5078784;28;20572;-76
2023/05/25 05:02:30;;;;;;;18.27;9.77;;;10.90;99.90;;;;;;5094488;28;20248;-77
2023/05/25 05:04:56;;;;;;;17.60;7.05;;;11.00;99.90;;;;;;5077904;28;20196;-78
2023/05/25 05:07:22;;;;;;;12.60;8.93;;;11.20;99.90;;;;;;5088850;28;20188;-77
2023/05/25 05:09:48;;;;;;;15.02;7.45;;;11.40;99.90;;;;;;5076691;28;20325;-77
2023/05/25 05:12:14;;;;;;;14.80;7.88;;;11.40;99.90;;;;;;5108902;28;20184;-77
2023/05/25 05:14:40;;;;;;;8.80;6.43;;;11.30;99.90;;;;;;5099975;28;20187;-76
2023/05/25 05:17:06;;;;;;;14.65;6.93;;;11.20;99.90;;;;;;5092246;28;20180;-76
2023/05/25 05:19:32;;;;;;;16.77;8.48;;;11.20;99.90;;;;;;5086509;28;20244;-76
2023/05/25 05:21:58;;;;;;;12.57;6.93;;;11.20;99.90;;;;;;5100354;28;20188;-75
2023/05/25 05:24:23;;;;;;;15.43;6.57;;;11.40;99.90;;;;;;5080223;28;20192;-76
2023/05/25 05:26:49;;;;;;;12.40;7.20;;;11.50;99.90;;;;;;5091678;28;20187;-76
2023/05/25 05:29:16;;;;;;;16.90;6.22;;;11.70;99.90;;;;;;5103097;28;20652;-76
2023/05/25 05:31:42;;;;;;;12.77;6.38;;;11.90;99.90;;;;;;5110651;28;20614;-76
2023/05/25 05:34:08;;;;;;;13.13;6.60;;;12.10;99.90;;;;;;5091812;28;20270;-76
2023/05/25 05:36:33;;;;;;;17.15;7.53;;;12.20;99.90;;;;;;5078203;28;20205;-76
2023/05/25 05:38:59;;;;;;;11.77;7.00;;;11.90;99.90;;;;;;5109286;28;20191;-74
2023/05/25 05:41:26;;;;;;;12.25;7.40;;;11.70;99.90;;;;;;5106046;28;20185;-75
2023/05/25 05:43:51;;;;;;;13.73;6.40;;;11.70;99.90;;;;;;5068974;28;20283;-75
2023/05/25 05:46:17;;;;;;;12.95;6.75;;;11.70;99.90;;;;;;5112395;28;20270;-75
2023/05/25 05:48:43;;;;;;;8.45;6.57;;;11.60;99.90;;;;;;5066643;28;20275;-75
2023/05/25 05:51:08;;;;;;;15.70;7.22;;;11.80;99.90;;;;;;5090260;28;20586;-76
2023/05/25 05:53:34;;;;;;;9.07;6.18;;;11.70;99.90;;;;;;5102310;28;20211;-76
2023/05/25 05:56:01;;;;;;;10.27;6.80;;;11.70;99.90;;;;;;5080848;28;20244;-75
2023/05/25 05:58:28;;;;;;;10.85;6.65;;;11.90;99.90;;;;;;5115543;28;20225;-74
2023/05/25 06:00:55;;;;;;;14.13;6.88;;;12.00;99.90;;;;;;5106060;28;20208;-75
2023/05/25 06:03:22;;;;;;;13.57;6.85;;;12.00;99.90;;;;;;5105115;28;20652;-75
2023/05/25 06:05:48;;;;;;;10.80;6.53;;;12.20;99.90;;;;;;5088069;28;20176;-76
2023/05/25 06:08:14;;;;;;;15.65;7.80;;;12.30;99.90;;;;;;5094127;28;20187;-77
2023/05/25 06:10:41;;;;;;;16.00;7.07;;;12.40;99.90;;;;;;5108050;28;20179;-76
2023/05/25 06:13:07;;;;;;;16.98;6.38;;;12.50;99.90;;;;;;5079833;28;20191;-76
2023/05/25 06:15:33;;;;;;;12.65;6.18;;;12.60;99.90;;;;;;5089112;28;20537;-76
2023/05/25 06:17:59;;;;;;;11.10;7.45;;;12.60;99.90;;;;;;5080475;28;20195;-76
2023/05/25 06:20:25;;;;;;;9.93;5.22;;;12.60;99.90;;;;;;5078294;28;20236;-76
2023/05/25 06:22:51;;;;;;;13.40;6.55;;;12.60;99.90;;;;;;5107192;28;20256;-76
2023/05/25 06:25:16;;;;;;;10.55;5.93;;;12.80;99.90;;;;;;5106262;28;20506;-76
2023/05/25 06:27:42;;;;;;;16.33;7.43;;;12.80;99.90;;;;;;5079043;28;20229;-76
2023/05/25 06:30:08;;;;;;;13.35;7.30;;;13.10;99.90;;;;;;5084529;28;20244;-77
2023/05/25 06:32:34;;;;;;;12.07;5.88;;;13.00;99.90;;;;;;5105065;28;20194;-77
2023/05/25 06:35:01;;;;;;;14.70;6.35;;;13.10;99.90;;;;;;5105915;28;20210;-76
2023/05/25 06:37:33;;;;;;;12.45;5.78;;;13.40;99.90;;;;;;5074003;28;20187;-77
2023/05/25 06:40:00;;;;;;;14.30;6.60;;;13.60;99.90;;;;;;5103201;28;20208;-77
2023/05/25 06:42:26;;;;;;;9.77;5.40;;;13.70;99.90;;;;;;5090163;28;20671;-77
2023/05/25 06:44:52;;;;;;;11.48;6.28;;;13.60;99.90;;;;;;5100546;28;20634;-77
2023/05/25 06:47:18;;;;;;;12.75;6.18;;;13.80;99.90;;;;;;5102395;28;20282;-76
2023/05/25 06:49:43;;;;;;;9.63;5.65;;;13.90;99.90;;;;;;5100981;28;20271;-78
2023/05/25 06:52:09;;;;;;;10.82;5.63;;;14.00;99.90;;;;;;5086104;28;20561;-77
2023/05/25 06:54:35;;;;;;;14.43;6.93;;;14.10;99.90;;;;;;5090732;28;20203;-77
2023/05/25 06:57:01;;;;;;;12.23;6.32;;;14.00;99.90;;;;;;5082152;28;20226;-73
2023/05/25 06:59:27;;;;;;;9.23;5.35;;;13.80;99.90;;;;;;5077714;28;20265;-78
2023/05/25 07:01:52;;;;;;;7.40;4.90;;;14.00;99.90;;;;;;5074697;28;20637;-78
2023/05/25 07:04:18;;;;;;;6.82;4.78;;;14.50;99.90;;;;;;5095496;28;20188;-79
2023/05/25 07:06:44;;;;;;;8.63;5.22;;;15.70;99.90;;;;;;5095376;28;20594;-78
2023/05/25 07:09:10;;;;;;;7.15;4.25;;;17.40;99.90;;;;;;5068816;28;20180;-78
2023/05/25 07:11:35;;;;;;;6.18;4.07;;;18.10;99.90;;;;;;5112820;28;20184;-80
2023/05/25 07:14:01;;;;;;;6.40;3.28;;;18.70;99.90;;;;;;5113754;28;20192;-80
2023/05/25 07:16:27;;;;;;;8.25;3.05;;;19.30;99.90;;;;;;5071138;28;20659;-81
2023/05/25 07:18:52;;;;;;;7.85;3.63;;;20.00;99.90;;;;;;5094345;28;20227;-81
2023/05/25 07:21:18;;;;;;;6.50;3.85;;;21.50;99.90;;;;;;5076847;28;20223;-80
2023/05/25 07:23:44;;;;;;;6.55;3.55;;;22.50;99.90;;;;;;5077242;28;20309;-80
2023/05/25 07:26:09;;;;;;;11.93;4.07;;;22.30;99.90;;;;;;5095953;28;20558;-79
2023/05/25 07:28:35;;;;;;;7.22;3.30;;;22.00;99.90;;;;;;5113328;28;20259;-79
2023/05/25 07:31:01;;;;;;;8.30;3.95;;;21.80;99.90;;;;;;5095524;28;20264;-80
2023/05/25 07:33:26;;;;;;;6.28;3.65;;;22.50;99.90;;;;;;5058524;28;20185;-80
2023/05/25 07:35:52;;;;;;;7.70;4.15;;;23.50;99.90;;;;;;5060060;28;20181;-79
2023/05/25 07:38:18;;;;;;;7.28;3.30;;;23.00;99.90;;;;;;5103015;28;20181;-80
2023/05/25 07:40:46;;;;;;;7.78;3.45;;;23.10;99.90;;;;;;5073187;28;20215;-81
2023/05/25 07:43:12;;;;;;;4.65;3.00;;;22.40;99.90;;;;;;5064278;28;20682;-80
2023/05/25 07:45:38;;;;;;;7.45;3.15;;;22.80;99.90;;;;;;5083176;28;20519;-81
2023/05/25 07:48:05;;;;;;;9.93;3.72;;;23.30;99.90;;;;;;5069407;28;20283;-79
2023/05/25 07:50:31;;;;;;;7.22;3.38;;;22.50;99.90;;;;;;5105329;28;20219;-81
2023/05/25 07:52:58;;;;;;;8.00;3.95;;;22.40;99.90;;;;;;5093045;28;20203;-79
2023/05/25 07:55:25;;;;;;;9.50;3.75;;;21.80;99.90;;;;;;5075183;28;20640;-79
2023/05/25 07:57:52;;;;;;;7.88;3.20;;;21.50;99.90;;;;;;5094781;28;20223;-79
2023/05/25 08:00:18;;;;;;;8.27;3.40;;;22.20;99.90;;;;;;5070923;28;20207;-79
2023/05/25 08:02:44;;;;;;;5.60;3.00;;;23.60;99.90;;;;;;5082871;28;20281;-79
2023/05/25 08:05:10;;;;;;;8.50;2.92;;;23.30;99.90;;;;;;5103671;28;20215;-80
2023/05/25 08:07:35;;;;;;;7.32;3.55;;;23.10;99.90;;;;;;5094783;28;20729;-80
2023/05/25 08:10:02;;;;;;;6.35;2.53;;;23.90;99.90;;;;;;5062658;28;20188;-80
2023/05/25 08:12:28;;;;;;;9.00;2.90;;;24.90;99.90;;;;;;5110386;28;20674;-80
2023/05/25 08:14:54;;;;;;;4.80;3.13;;;25.10;99.90;;;;;;5088824;28;20225;-80
2023/05/25 08:17:20;;;;;;;6.50;3.35;;;25.30;99.90;;;;;;5081961;28;20183;-80
2023/05/25 08:19:46;;;;;;;8.30;4.07;;;24.70;99.90;;;;;;5091678;28;20231;-80
2023/05/25 08:22:12;;;;;;;5.95;3.25;;;24.20;99.90;;;;;;5100510;28;20675;-80
2023/05/25 08:24:38;;;;;;;4.22;2.42;;;24.10;99.90;;;;;;5113930;28;20179;-80
2023/05/25 08:27:03;;;;;;;8.15;3.63;;;24.40;99.90;;;;;;5098518;28;20634;-80
2023/05/25 08:29:30;;;;;;;6.93;2.83;;;24.60;99.90;;;;;;5110028;28;20191;-79
2023/05/25 08:31:56;;;;;;;5.30;2.95;;;25.00;99.90;;;;;;5077217;28;20191;-77
2023/05/25 08:34:21;;;;;;;4.93;2.65;;;25.00;99.90;;;;;;5089169;28;20692;-80
2023/05/25 08:36:47;;;;;;;6.63;3.97;;;24.20;99.90;;;;;;5054056;28;20232;-80
2023/05/25 08:39:14;;;;;;;5.68;2.80;;;23.80;99.90;;;;;;5089162;28;20548;-80
2023/05/25 08:41:43;;;;;;;8.60;3.10;;;24.30;99.90;;;;;;5104134;28;20237;-78
2023/05/25 08:44:10;;;;;;;7.35;3.40;;;24.50;99.90;;;;;;5111398;28;20187;-78
2023/05/25 08:46:36;;;;;;;6.88;3.30;;;24.40;99.90;;;;;;5113782;28;20648;-80
2023/05/25 08:49:09;;;;;;;5.43;3.58;;;22.20;99.90;;;;;;5075399;28;20200;-80
2023/05/25 08:51:36;;;;;;;7.97;3.30;;;21.60;99.90;;;;;;5111917;28;20644;-80
2023/05/25 08:54:11;;;;;;;6.55;3.42;;;22.10;99.90;;;;;;5087578;28;20279;-79
2023/05/25 08:56:50;;;;;;;9.07;3.60;;;21.90;99.90;;;;;;5105998;28;20176;-80
2023/05/25 08:59:34;;;;;;;6.93;3.83;;;22.20;99.90;;;;;;5081918;28;20192;-79
2023/05/25 09:02:12;;;;;;;7.32;2.90;;;21.90;99.90;;;;;;5109559;28;20184;-79
2023/05/25 09:04:39;;;;;;;5.03;3.00;;;22.80;99.90;;;;;;5081327;28;20203;-80
2023/05/25 09:07:05;;;;;;;7.03;4.13;;;22.50;99.90;;;;;;5094295;28;20266;-79
2023/05/25 09:09:34;;;;;;;4.35;3.38;;;23.40;99.90;;;;;;5095725;28;20678;-78
2023/05/25 09:12:01;;;;;;;7.18;3.63;;;23.40;99.90;;;;;;5099440;28;20677;-79
2023/05/25 09:14:27;;;;;;;5.82;3.10;;;23.60;99.90;;;;;;5079381;28;20212;-80
2023/05/25 09:16:52;;;;;;;5.25;3.17;;;24.20;99.90;;;;;;5081702;28;20234;-79
2023/05/25 09:19:19;;;;;;;8.15;3.08;;;24.40;99.90;;;;;;5095197;28;20228;-80
2023/05/25 09:21:44;;;;;;;7.13;3.15;;;22.90;99.90;;;;;;5063270;28;20699;-79
2023/05/25 09:24:11;;;;;;;9.23;2.97;;;22.50;99.90;;;;;;5080161;28;20189;-79
2023/05/25 09:26:36;;;;;;;5.68;2.80;;;20.90;99.90;;;;;;5076345;28;20180;-74
2023/05/25 09:29:02;;;;;;;5.38;3.20;;;19.60;99.90;;;;;;5081810;28;20193;-79
2023/05/25 09:31:29;;;;;;;5.47;3.55;;;19.10;99.90;;;;;;5071184;28;20184;-79
2023/05/25 09:33:58;;;;;;;7.53;3.92;;;19.20;99.90;;;;;;5095708;28;20188;-78
2023/05/25 09:36:25;;;;;;;4.68;3.17;;;18.90;99.90;;;;;;5089643;28;20583;-80
2023/05/25 09:38:54;;;;;;;6.40;2.97;;;18.50;99.90;;;;;;5116420;28;20196;-80
2023/05/25 09:41:20;;;;;;;4.75;3.67;;;18.70;99.90;;;;;;5097321;28;20206;-79
2023/05/25 09:43:47;;;;;;;15.90;4.53;;;18.70;99.90;;;;;;5116519;28;20183;-80
2023/05/25 09:46:13;;;;;;;7.57;3.47;;;19.00;99.90;;;;;;5095082;28;20172;-76
2023/05/25 09:48:40;;;;;;;6.70;3.50;;;19.00;99.90;;;;;;5115810;28;20187;-76
2023/05/25 09:51:07;;;;;;;7.57;4.30;;;19.10;99.90;;;;;;5114616;28;20191;-72
2023/05/25 09:53:33;;;;;;;9.82;3.78;;;19.10;99.90;;;;;;5097749;28;20254;-73
2023/05/25 09:56:00;;;;;;;5.50;4.28;;;18.50;99.90;;;;;;5080652;28;20184;-73
2023/05/25 09:58:26;;;;;;;3.97;2.97;;;17.90;99.90;;;;;;5113874;28;20184;-71
2023/05/25 10:00:54;;;;;;;7.30;3.67;;;18.10;99.90;;;;;;5116074;28;20294;-72
2023/05/25 10:03:20;;;;;;;10.07;4.57;;;18.00;99.90;;;;;;5115028;28;20262;-68
2023/05/25 10:05:47;;;;;;;6.75;3.25;;;18.10;99.90;;;;;;5115144;28;20270;-68
2023/05/25 10:08:13;;;;;;;8.23;3.03;;;18.10;99.90;;;;;;5111257;28;20577;-69
2023/05/25 10:10:41;;;;;;;10.82;3.60;;;18.20;99.90;;;;;;5088849;28;20180;-77
2023/05/25 10:13:08;;;;;;;5.28;2.95;;;18.10;99.90;;;;;;5081197;28;20641;-77
2023/05/25 10:15:38;;;;;;;4.82;3.00;;;18.30;99.90;;;;;;5097747;28;20536;-78
2023/05/25 10:18:05;;;;;;;5.53;2.47;;;18.60;99.90;;;;;;5115104;28;20187;-75
2023/05/25 10:20:31;;;;;;;8.15;3.47;;;18.70;99.90;;;;;;5115697;28;20228;-76
2023/05/25 10:23:10;;;;;;;4.95;3.00;;;18.70;99.90;;;;;;5115475;28;20317;-78
2023/05/25 10:25:47;;;;;;;5.15;2.67;;;19.00;99.90;;;;;;5116796;28;20176;-76
2023/05/25 10:28:27;;;;;;;10.00;3.28;;;19.30;99.90;;;;;;5087882;28;20173;-82
2023/05/25 10:30:54;;;;;;;5.82;4.13;;;19.40;99.90;;;;;;5091281;28;20184;-78
2023/05/25 10:33:20;;;;;;;5.85;3.80;;;19.40;99.90;;;;;;5111323;28;20180;-74
2023/05/25 10:35:48;;;;;;;4.75;2.92;;;19.50;99.90;;;;;;5106678;28;20244;-78
2023/05/25 10:38:14;;;;;;;3.45;2.60;;;19.80;99.90;;;;;;5104732;28;20191;-78
2023/05/25 10:40:40;;;;;;;6.78;3.65;;;20.00;99.90;;;;;;5114013;28;20207;-72
2023/05/25 10:43:06;;;;;;;6.13;3.40;;;19.70;99.90;;;;;;5114486;28;20191;-73
2023/05/25 10:45:32;;;;;;;3.15;2.72;;;19.50;99.90;;;;;;5114541;28;20180;-70
2023/05/25 10:47:58;;;;;;;3.22;2.67;;;19.20;99.90;;;;;;5103944;28;20669;-72
2023/05/25 10:50:25;;;;;;;4.70;2.78;;;19.40;99.90;;;;;;5102290;28;20188;-70
2023/05/25 10:53:01;;;;;;;4.55;3.88;;;19.80;99.90;;;;;;5109946;28;20180;-66
2023/05/25 10:55:30;;;;;;;4.60;2.63;;;19.50;99.90;;;;;;5109181;28;20179;-68
2023/05/25 10:58:16;;;;;;;3.83;3.42;;;19.20;99.90;;;;;;5109005;28;20184;-70
2023/05/25 11:00:42;;;;;;;4.40;3.13;;;19.40;99.90;;;;;;5109146;28;20503;-70
2023/05/25 11:03:09;;;;;;;9.35;4.03;;;19.50;99.90;;;;;;5089972;28;20196;-70
2023/05/25 11:05:37;;;;;;;5.55;3.25;;;19.40;99.90;;;;;;5107813;28;20195;-71
2023/05/25 11:08:08;;;;;;;3.38;2.63;;;19.40;99.90;;;;;;5102227;28;20676;-71
2023/05/25 11:10:48;;;;;;;4.85;3.00;;;19.60;99.90;;;;;;5109364;28;20188;-74
2023/05/25 11:13:21;;;;;;;4.72;2.95;;;19.70;99.90;;;;;;5105474;28;20183;-69
2023/05/25 11:16:06;;;;;;;11.68;5.00;;;19.90;99.90;;;;;;5090894;28;20176;-69
2023/05/25 11:18:42;;;;;;;5.10;3.80;;;20.10;99.90;;;;;;5108944;28;20263;-72
2023/05/25 11:21:12;;;;;;;5.35;3.50;;;19.80;99.90;;;;;;5108760;28;20557;-71
2023/05/25 11:24:01;;;;;;;4.40;3.95;;;19.70;99.90;;;;;;5108981;28;20183;-73
2023/05/25 11:26:33;;;;;;;4.50;3.53;;;20.00;99.90;;;;;;5098341;28;20197;-72
2023/05/25 11:29:00;;;;;;;6.78;3.90;;;19.90;99.90;;;;;;5108379;28;20191;-71
2023/05/25 11:31:33;;;;;;;7.22;3.85;;;19.70;99.90;;;;;;5101225;28;20192;-74
2023/05/25 11:34:00;;;;;;;8.80;4.47;;;19.50;99.90;;;;;;5079675;28;20541;-72
2023/05/25 11:36:30;;;;;;;5.78;4.70;;;19.30;99.90;;;;;;5099523;28;20728;-73
2023/05/25 11:38:56;;;;;;;9.38;4.05;;;19.40;99.90;;;;;;5099699;28;20180;-73
2023/05/25 11:41:22;;;;;;;5.15;3.28;;;19.30;99.90;;;;;;5101466;28;20204;-74
2023/05/25 11:43:49;;;;;;;6.72;3.33;;;19.50;99.90;;;;;;5081124;28;20284;-75
2023/05/25 11:46:20;;;;;;;7.18;3.58;;;19.60;99.90;;;;;;5103939;28;20173;-72
2023/05/25 11:48:53;;;;;;;5.38;3.83;;;19.60;99.90;;;;;;5098372;28;20223;-71
2023/05/25 11:51:27;;;;;;;8.05;3.95;;;19.70;99.90;;;;;;5069067;28;20544;-75
2023/05/25 11:53:53;;;;;;;3.25;2.92;;;19.50;99.90;;;;;;5086250;28;20180;-73
2023/05/25 11:56:21;;;;;;;6.53;3.88;;;19.30;99.90;;;;;;5087682;28;20665;-75
2023/05/25 11:58:48;;;;;;;6.93;3.35;;;19.30;99.90;;;;;;5102599;28;20195;-75
2023/05/25 12:01:22;;;;;;;5.63;4.00;;;19.70;99.90;;;;;;5084647;28;20244;-76
2023/05/25 12:03:49;;;;;;;8.15;4.32;;;19.40;99.90;;;;;;5108704;28;20663;-79
2023/05/25 12:06:27;;;;;;;5.68;3.55;;;19.30;99.90;;;;;;5106820;28;20182;-73
2023/05/25 12:08:54;;;;;;;4.53;3.35;;;19.40;99.90;;;;;;5089323;28;20589;-74
2023/05/25 12:11:38;;;;;;;6.65;3.92;;;19.20;99.90;;;;;;5095025;28;20180;-71
2023/05/25 12:14:05;;;;;;;4.53;4.07;;;19.20;99.90;;;;;;5112182;28;20196;-72
2023/05/25 12:16:33;;;;;;;5.97;3.72;;;18.90;99.90;;;;;;5089257;28;20188;-74
2023/05/25 12:19:00;;;;;;;8.73;3.95;;;18.90;99.90;;;;;;5094188;28;20573;-75
2023/05/25 12:21:26;;;;;;;4.93;3.45;;;18.90;99.90;;;;;;5112896;28;20200;-74
2023/05/25 12:23:53;;;;;;;7.63;5.40;;;18.90;99.90;;;;;;5112585;28;20271;-73
2023/05/25 12:26:20;;;;;;;5.88;3.88;;;19.20;99.90;;;;;;5100593;28;20317;-77
2023/05/25 12:29:04;;;;;;;5.45;3.55;;;19.40;99.90;;;;;;5098371;28;20172;-75
2023/05/25 12:31:33;;;;;;;5.70;3.75;;;19.40;99.90;;;;;;5090094;28;20180;-70
2023/05/25 12:34:18;;;;;;;5.65;3.50;;;19.30;99.90;;;;;;5088061;28;20575;-72
2023/05/25 12:36:55;;;;;;;5.25;3.58;;;19.20;99.90;;;;;;5097869;28;20176;-71
2023/05/25 12:39:29;;;;;;;7.68;3.90;;;19.10;99.90;;;;;;5094315;28;20404;-69
2023/05/25 12:42:03;;;;;;;4.97;3.88;;;18.90;99.90;;;;;;5107207;28;20258;-75
2023/05/25 12:44:32;;;;;;;7.15;4.40;;;19.20;99.90;;;;;;5104974;28;20185;-75